createdAt,value
2022-11-05T00:00:36.456Z,1.95
2022-11-05T00:03:22.882Z,2.53
2022-11-05T00:06:09.881Z,2.45
2022-11-05T00:08:56.039Z,2.65
2022-11-05T00:11:43.653Z,2.65
2022-11-05T00:14:29.897Z,3.00
2022-11-05T00:16:57.247Z,2.50
2022-11-05T00:19:26.714Z,3.05
2022-11-05T00:22:13.623Z,2.72
2022-11-05T00:25:00.523Z,2.65
2022-11-05T00:27:27.936Z,2.67
2022-11-05T00:29:55.416Z,2.53
2022-11-05T00:32:23.740Z,2.33
2022-11-05T00:34:52.216Z,2.50
2022-11-05T00:37:19.544Z,2.50
2022-11-05T00:39:47.050Z,2.30
2022-11-05T00:42:38.870Z,2.20
2022-11-05T00:45:16.533Z,2.20
2022-11-05T00:48:04.144Z,2.30
2022-11-05T00:50:31.838Z,2.70
2022-11-05T00:53:00.510Z,2.80
2022-11-05T00:55:40.650Z,3.20
2022-11-05T00:58:11.449Z,3.00
2022-11-05T01:00:51.429Z,3.20
2022-11-05T01:03:21.414Z,3.78
2022-11-05T01:05:54.496Z,3.67
2022-11-05T01:08:23.610Z,3.95
2022-11-05T01:10:55.421Z,4.22
2022-11-05T01:13:25.780Z,4.28
2022-11-05T01:15:53.520Z,4.35
2022-11-05T01:18:23.048Z,3.50
2022-11-05T01:20:50.927Z,3.33
2022-11-05T01:23:21.269Z,3.22
2022-11-05T01:25:48.962Z,3.22
2022-11-05T01:28:18.459Z,3.70
2022-11-05T01:30:45.873Z,3.83
2022-11-05T01:33:14.591Z,3.40
2022-11-05T01:35:42.226Z,3.45
2022-11-05T01:38:09.676Z,3.83
2022-11-05T01:40:37.055Z,3.30
2022-11-05T01:43:19.437Z,3.45
2022-11-05T01:45:51.830Z,3.13
2022-11-05T01:48:26.829Z,2.90
2022-11-05T01:51:07.410Z,2.97
2022-11-05T01:54:09.791Z,3.33
2022-11-05T01:56:43.837Z,3.47
2022-11-05T01:59:11.165Z,3.28
2022-11-05T02:01:38.864Z,3.15
2022-11-05T02:04:09.546Z,3.95
2022-11-05T02:06:46.289Z,3.35
2022-11-05T02:09:26.860Z,3.90
2022-11-05T02:11:54.291Z,3.95
2022-11-05T02:14:23.323Z,3.70
2022-11-05T02:17:00.969Z,5.15
2022-11-05T02:19:53.370Z,5.03
2022-11-05T02:22:35.819Z,4.57
2022-11-05T02:25:22.198Z,4.55
2022-11-05T02:28:14.353Z,4.70
2022-11-05T02:30:51.043Z,5.10
2022-11-05T02:33:37.618Z,4.95
2022-11-05T02:36:11.062Z,5.40
2022-11-05T02:39:05.274Z,4.93
2022-11-05T02:41:51.019Z,4.32
2022-11-05T02:44:37.239Z,4.28
2022-11-05T02:47:18.327Z,4.30
2022-11-05T02:50:14.102Z,4.93
2022-11-05T02:53:19.843Z,3.95
2022-11-05T02:55:51.617Z,3.80
2022-11-05T02:58:19.113Z,3.90
2022-11-05T03:00:57.118Z,3.65
2022-11-05T03:03:55.145Z,3.95
2022-11-05T03:06:31.403Z,3.80
2022-11-05T03:09:16.976Z,3.53
2022-11-05T03:11:56.371Z,3.45
2022-11-05T03:14:35.699Z,3.33
2022-11-05T03:17:59.818Z,3.38
2022-11-05T03:20:39.116Z,3.20
2022-11-05T03:23:33.015Z,3.78
2022-11-05T03:28:36.157Z,3.20
2022-11-05T03:31:04.033Z,3.17
2022-11-05T03:33:33.826Z,3.22
2022-11-05T03:36:07.320Z,3.63
2022-11-05T03:38:38.092Z,3.38
2022-11-05T03:41:10.519Z,3.70
2022-11-05T03:43:42.018Z,3.47
2022-11-05T03:46:17.900Z,3.40
2022-11-05T03:48:48.157Z,3.10
2022-11-05T03:51:26.836Z,3.33
2022-11-05T03:53:59.178Z,2.78
2022-11-05T03:56:31.605Z,2.40
2022-11-05T03:59:00.711Z,2.13
2022-11-05T04:01:28.795Z,2.20
2022-11-05T04:03:56.242Z,1.70
2022-11-05T04:06:44.341Z,2.30
2022-11-05T04:09:31.459Z,2.00
2022-11-05T04:12:17.452Z,1.80
2022-11-05T04:14:44.853Z,1.80
2022-11-05T04:17:12.567Z,2.00
2022-11-05T04:20:02.810Z,2.10
2022-11-05T04:22:52.136Z,1.50
2022-11-05T04:25:20.869Z,1.70
2022-11-05T04:27:49.405Z,1.75
2022-11-05T04:30:21.694Z,2.17
2022-11-05T04:33:01.509Z,2.13
2022-11-05T04:35:51.802Z,2.17
2022-11-05T04:38:20.214Z,2.40
2022-11-05T04:40:51.817Z,2.42
2022-11-05T04:43:19.871Z,2.63
2022-11-05T04:45:48.551Z,2.80
2022-11-05T04:48:15.943Z,3.20
2022-11-05T04:50:43.491Z,2.60
2022-11-05T04:53:11.146Z,2.35
2022-11-05T04:55:39.777Z,2.40
2022-11-05T04:58:07.356Z,2.60
2022-11-05T05:00:34.830Z,2.80
2022-11-05T05:03:02.256Z,2.83
2022-11-05T05:05:30.638Z,3.42
2022-11-05T05:08:05.417Z,3.17
2022-11-05T05:10:32.876Z,3.58
2022-11-05T05:13:02.343Z,3.17
2022-11-05T05:15:29.693Z,3.47
2022-11-05T05:17:58.415Z,3.38
2022-11-05T05:20:44.496Z,3.50
2022-11-05T05:23:15.113Z,2.97
2022-11-05T05:25:42.821Z,3.17
2022-11-05T05:28:10.166Z,3.03
2022-11-05T05:30:37.670Z,2.75
2022-11-05T05:33:05.090Z,2.63
2022-11-05T05:35:32.675Z,2.55
2022-11-05T05:38:00.016Z,3.40
2022-11-05T05:40:27.611Z,3.10
2022-11-05T05:42:55.815Z,3.42
2022-11-05T05:45:23.370Z,3.33
2022-11-05T05:47:50.781Z,3.25
2022-11-05T05:50:18.256Z,3.72
2022-11-05T05:52:52.968Z,3.83
2022-11-05T05:55:20.763Z,3.58
2022-11-05T05:57:48.123Z,3.92
2022-11-05T06:00:15.860Z,3.60
2022-11-05T06:02:43.477Z,4.35
2022-11-05T06:05:11.204Z,5.68
2022-11-05T06:07:38.542Z,5.20
2022-11-05T06:10:06.471Z,5.85
2022-11-05T06:12:34.003Z,6.53
2022-11-05T06:15:01.392Z,5.68
2022-11-05T06:17:28.876Z,5.80
2022-11-05T06:19:56.290Z,6.28
2022-11-05T06:22:24.716Z,6.55
2022-11-05T06:24:52.085Z,6.05
2022-11-05T06:27:19.527Z,6.28
2022-11-05T06:29:46.968Z,6.50
2022-11-05T06:32:14.486Z,5.90
2022-11-05T06:34:41.885Z,5.93
2022-11-05T06:37:09.409Z,5.32
2022-11-05T06:39:36.780Z,4.90
2022-11-05T06:42:18.069Z,5.05
2022-11-05T06:44:46.359Z,4.30
2022-11-05T06:47:13.910Z,3.97
2022-11-05T06:49:41.308Z,3.80
2022-11-05T06:52:08.812Z,3.78
2022-11-05T06:54:36.208Z,3.45
2022-11-05T06:57:04.528Z,3.25
2022-11-05T06:59:32.154Z,3.63
2022-11-05T07:01:59.605Z,3.65
2022-11-05T07:04:27.047Z,3.03
2022-11-05T07:06:54.576Z,3.10
2022-11-05T07:09:22.251Z,2.65
2022-11-05T07:11:49.657Z,4.25
2022-11-05T07:14:17.226Z,3.97
2022-11-05T07:16:44.846Z,3.00
2022-11-05T07:19:12.377Z,3.15
2022-11-05T07:21:39.972Z,2.80
2022-11-05T07:24:07.983Z,2.83
2022-11-05T07:26:35.283Z,2.60
2022-11-05T07:29:03.902Z,2.20
2022-11-05T07:31:31.447Z,2.50
2022-11-05T07:33:59.336Z,2.58
2022-11-05T07:36:26.716Z,2.67
2022-11-05T07:38:59.888Z,2.05
2022-11-05T07:41:28.821Z,2.10
2022-11-05T07:43:56.391Z,1.95
2022-11-05T07:46:23.780Z,2.50
2022-11-05T07:48:51.296Z,2.88
2022-11-05T07:51:18.668Z,3.10
2022-11-05T07:53:48.253Z,2.47
2022-11-05T07:56:15.942Z,2.97
2022-11-05T07:58:43.618Z,2.83
2022-11-05T08:01:11.148Z,2.63
2022-11-05T08:03:39.693Z,2.65
2022-11-05T08:06:07.239Z,2.90
2022-11-05T08:08:34.771Z,2.42
2022-11-05T08:11:05.891Z,2.72
2022-11-05T08:13:34.563Z,2.38
2022-11-05T08:16:02.875Z,3.00
2022-11-05T08:18:34.201Z,2.50
2022-11-05T08:21:03.484Z,3.05
2022-11-05T08:23:32.099Z,2.55
2022-11-05T08:26:02.092Z,2.55
2022-11-05T08:28:31.545Z,2.20
2022-11-05T08:30:58.971Z,2.45
2022-11-05T08:33:27.637Z,2.35
2022-11-05T08:35:55.023Z,2.22
2022-11-05T08:38:23.796Z,1.65
2022-11-05T08:40:56.191Z,2.20
2022-11-05T08:43:24.137Z,1.73
2022-11-05T08:45:51.672Z,1.77
2022-11-05T08:48:19.572Z,1.83
2022-11-05T08:50:48.247Z,1.92
2022-11-05T08:53:16.319Z,2.60
2022-11-05T08:55:44.298Z,2.47
2022-11-05T08:58:15.368Z,2.53
2022-11-05T09:00:45.347Z,2.80
2022-11-05T09:03:13.466Z,2.65
2022-11-05T09:05:41.803Z,2.45
2022-11-05T09:08:17.935Z,2.70
2022-11-05T09:10:47.032Z,2.88
2022-11-05T09:13:18.686Z,2.97
2022-11-05T09:15:50.438Z,3.30
2022-11-05T09:18:19.179Z,2.90
2022-11-05T09:20:47.253Z,3.50
2022-11-05T09:23:15.653Z,3.25
2022-11-05T09:25:43.964Z,3.08
2022-11-05T09:28:16.855Z,2.60
2022-11-05T09:30:54.520Z,3.97
2022-11-05T09:33:24.250Z,2.67
2022-11-05T09:35:52.894Z,2.50
2022-11-05T09:38:20.435Z,3.13
2022-11-05T09:41:01.090Z,2.70
2022-11-05T09:43:37.263Z,3.17
2022-11-05T09:46:09.884Z,3.85
2022-11-05T09:48:38.427Z,3.50
2022-11-05T09:51:06.261Z,3.78
2022-11-05T09:53:35.572Z,3.90
2022-11-05T09:56:03.473Z,3.80
2022-11-05T09:58:36.931Z,4.20
2022-11-05T10:01:09.593Z,4.47
2022-11-05T10:03:45.462Z,6.07
2022-11-05T10:06:19.832Z,6.28
2022-11-05T10:08:51.903Z,5.32
2022-11-05T10:11:29.721Z,5.43
2022-11-05T10:13:59.754Z,4.75
2022-11-05T10:16:39.320Z,4.20
2022-11-05T10:19:17.447Z,5.25
2022-11-05T10:22:05.457Z,6.25
2022-11-05T10:24:32.644Z,6.00
2022-11-05T10:27:00.313Z,6.82
2022-11-05T10:29:29.867Z,6.15
2022-11-05T10:31:58.728Z,5.85
2022-11-05T10:34:29.585Z,5.57
2022-11-05T10:36:57.141Z,5.32
2022-11-05T10:39:25.335Z,5.20
2022-11-05T10:41:55.603Z,4.88
2022-11-05T10:44:47.673Z,5.07
2022-11-05T10:47:52.730Z,5.38
2022-11-05T10:50:23.756Z,6.40
2022-11-05T10:53:07.891Z,6.03
2022-11-05T10:55:37.109Z,5.97
2022-11-05T10:58:20.413Z,6.20
2022-11-05T11:00:53.812Z,7.05
2022-11-05T11:03:33.202Z,6.20
2022-11-05T11:06:03.020Z,6.72
2022-11-05T11:08:31.053Z,7.70
2022-11-05T11:11:00.069Z,7.30
2022-11-05T11:13:29.866Z,6.78
2022-11-05T11:16:15.969Z,6.50
2022-11-05T11:18:43.798Z,6.13
2022-11-05T11:21:17.260Z,6.57
2022-11-05T11:23:55.819Z,5.90
2022-11-05T11:26:24.856Z,5.80
2022-11-05T11:28:59.675Z,6.53
2022-11-05T11:31:29.651Z,7.38
2022-11-05T11:34:27.829Z,7.05
2022-11-05T11:37:08.040Z,6.85
2022-11-05T11:39:37.564Z,6.47
2022-11-05T11:42:14.178Z,7.10
2022-11-05T11:44:44.358Z,6.55
2022-11-05T11:47:13.853Z,6.50
2022-11-05T11:49:57.533Z,6.60
2022-11-05T11:55:12.358Z,5.75
2022-11-05T11:57:51.847Z,6.20
2022-11-05T12:00:20.732Z,6.50
2022-11-05T12:03:04.059Z,5.57
2022-11-05T12:05:52.735Z,6.72
2022-11-05T12:08:45.365Z,8.23
2022-11-05T12:11:22.912Z,8.68
2022-11-05T12:14:04.755Z,8.57
2022-11-05T12:16:42.015Z,9.20
2022-11-05T12:19:24.071Z,8.77
2022-11-05T12:22:10.538Z,7.90
2022-11-05T12:24:44.931Z,8.07
2022-11-05T12:27:39.442Z,7.25
2022-11-05T12:30:16.127Z,7.30
2022-11-05T12:33:17.731Z,7.78
2022-11-05T12:36:02.782Z,7.80
2022-11-05T12:39:15.458Z,7.40
2022-11-05T12:42:02.627Z,7.72
2022-11-05T12:44:39.125Z,7.93
2022-11-05T12:47:25.396Z,7.68
2022-11-05T12:50:29.026Z,7.90
2022-11-05T12:53:08.736Z,7.28
2022-11-05T12:55:47.124Z,8.18
2022-11-05T12:58:23.973Z,8.13
2022-11-05T13:01:16.087Z,7.93
2022-11-05T13:03:51.982Z,7.80
2022-11-05T13:06:23.301Z,6.95
2022-11-05T13:09:04.447Z,7.28
2022-11-05T13:11:44.131Z,7.38
2022-11-05T13:14:39.367Z,7.20
2022-11-05T13:17:13.772Z,6.65
2022-11-05T13:20:22.721Z,6.45
2022-11-05T13:22:56.848Z,7.20
2022-11-05T13:25:28.217Z,7.57
2022-11-05T13:28:01.703Z,6.90
2022-11-05T13:30:38.286Z,7.80
2022-11-05T13:33:12.267Z,7.50
2022-11-05T13:36:16.987Z,6.40
2022-11-05T13:38:59.488Z,6.32
2022-11-05T13:41:52.138Z,5.20
2022-11-05T13:44:50.788Z,6.32
2022-11-05T13:47:24.500Z,5.68
2022-11-05T13:50:06.866Z,6.40
2022-11-05T13:52:58.091Z,6.40
2022-11-05T13:55:28.468Z,6.28
2022-11-05T13:58:33.415Z,6.53
2022-11-05T14:01:18.375Z,6.82
2022-11-05T14:03:48.073Z,6.40
2022-11-05T14:06:23.675Z,6.57
2022-11-05T14:08:51.641Z,6.53
2022-11-05T14:11:29.957Z,6.05
2022-11-05T14:14:04.682Z,5.68
2022-11-05T14:16:53.201Z,5.63
2022-11-05T14:19:21.316Z,5.32
2022-11-05T14:21:52.848Z,5.93
2022-11-05T14:24:23.459Z,5.50
2022-11-05T14:27:13.637Z,5.28
2022-11-05T14:29:49.526Z,4.93
2022-11-05T14:32:19.911Z,4.60
2022-11-05T14:35:13.296Z,4.50
2022-11-05T14:37:42.517Z,4.45
2022-11-05T14:40:22.173Z,4.05
2022-11-05T14:43:01.143Z,4.13
2022-11-05T14:45:38.461Z,3.70
2022-11-05T14:48:22.834Z,4.10
2022-11-05T14:50:50.315Z,3.88
2022-11-05T14:53:41.761Z,3.35
2022-11-05T14:56:12.171Z,3.20
2022-11-05T14:58:45.079Z,2.47
2022-11-05T15:01:15.498Z,2.92
2022-11-05T15:03:46.788Z,2.67
2022-11-05T15:06:28.820Z,2.85
2022-11-05T15:09:24.401Z,2.83
2022-11-05T15:11:54.809Z,2.60
2022-11-05T15:14:35.091Z,2.80
2022-11-05T15:17:29.807Z,2.83
2022-11-05T15:20:10.783Z,2.88
2022-11-05T15:22:42.605Z,2.70
2022-11-05T15:25:22.257Z,2.58
2022-11-05T15:28:06.185Z,2.75
2022-11-05T15:30:33.865Z,2.63
2022-11-05T15:33:20.126Z,2.50
2022-11-05T15:35:47.825Z,2.33
2022-11-05T15:38:25.884Z,2.90
2022-11-05T15:41:01.545Z,2.72
2022-11-05T15:43:29.333Z,4.10
2022-11-05T15:46:09.150Z,3.80
2022-11-05T15:48:38.099Z,4.32
2022-11-05T15:51:07.549Z,4.40
2022-11-05T15:54:23.815Z,4.10
2022-11-05T15:56:53.127Z,3.78
2022-11-05T15:59:25.435Z,3.55
2022-11-05T16:02:22.534Z,3.42
2022-11-05T16:04:54.849Z,3.40
2022-11-05T16:07:27.701Z,3.45
2022-11-05T16:10:01.849Z,3.42
2022-11-05T16:12:38.625Z,4.03
2022-11-05T16:15:15.116Z,3.55
2022-11-05T16:18:01.290Z,4.00
2022-11-05T16:20:36.400Z,3.95
2022-11-05T16:23:26.578Z,3.63
2022-11-05T16:25:59.205Z,4.07
2022-11-05T16:28:32.298Z,3.90
2022-11-05T16:31:07.237Z,4.40
2022-11-05T16:33:45.913Z,3.38
2022-11-05T16:36:46.164Z,3.85
2022-11-05T16:52:15.297Z,3.53
2022-11-05T16:55:31.262Z,3.50
2022-11-05T16:57:59.661Z,3.38
2022-11-05T17:00:27.089Z,3.50
2022-11-05T17:07:47.521Z,3.40
2022-11-05T17:10:15.121Z,3.58
2022-11-05T17:12:45.640Z,3.47
2022-11-05T17:20:28.904Z,3.05
2022-11-05T17:23:01.199Z,3.45
2022-11-05T17:25:33.135Z,3.27
2022-11-05T18:38:38.381Z,3.00
2022-11-05T18:41:11.213Z,3.13
2022-11-05T18:43:42.908Z,3.45
2022-11-05T18:46:51.660Z,3.33
2022-11-05T18:49:21.192Z,3.05
2022-11-05T18:51:51.708Z,3.03
2022-11-05T18:54:32.142Z,2.97
2022-11-05T18:57:03.655Z,3.20
2022-11-05T18:59:38.267Z,3.22
2022-11-05T19:02:34.703Z,3.00
2022-11-05T19:05:28.445Z,2.83
2022-11-05T19:08:05.828Z,3.00
2022-11-05T19:10:37.336Z,2.72
2022-11-05T19:13:07.784Z,2.60
2022-11-05T19:15:45.240Z,2.45
2022-11-05T19:18:16.088Z,2.75
2022-11-05T19:20:49.543Z,2.95
2022-11-05T19:23:22.974Z,2.50
2022-11-05T19:26:28.998Z,2.65
2022-11-05T19:29:02.725Z,2.45
2022-11-05T19:31:41.839Z,2.60
2022-11-05T19:34:24.110Z,2.80
2022-11-05T19:36:56.266Z,2.60
2022-11-05T19:39:34.332Z,2.60
2022-11-05T19:42:06.972Z,3.22
2022-11-05T19:44:38.927Z,3.00
2022-11-05T19:48:38.975Z,2.85
2022-11-05T19:51:27.296Z,2.72
2022-11-05T19:54:18.578Z,2.80
2022-11-05T19:56:53.062Z,3.13
2022-11-05T19:59:36.589Z,3.13
2022-11-05T20:02:13.275Z,3.40
2022-11-05T20:04:56.075Z,3.15
2022-11-05T20:07:27.425Z,3.05
2022-11-05T20:10:06.818Z,2.92
2022-11-05T20:12:48.694Z,3.40
2022-11-05T20:15:20.757Z,3.03
2022-11-05T20:18:01.903Z,3.10
2022-11-05T20:20:32.944Z,3.70
2022-11-05T20:27:23.743Z,3.13
2022-11-05T20:32:30.600Z,2.90
2022-11-05T20:35:42.898Z,3.15
2022-11-05T20:38:14.674Z,2.97
2022-11-05T20:40:52.975Z,2.97
2022-11-05T20:43:30.058Z,2.95
2022-11-05T20:46:04.748Z,3.20
2022-11-05T20:48:57.280Z,2.72
2022-11-05T20:51:32.654Z,2.75
2022-11-05T20:54:05.996Z,2.72
2022-11-05T20:56:37.175Z,2.97
2022-11-05T20:59:14.366Z,2.92
2022-11-05T21:01:45.492Z,3.38
2022-11-05T21:04:23.411Z,2.78
2022-11-05T21:06:55.422Z,3.50
2022-11-05T21:09:30.204Z,3.50
2022-11-05T21:12:15.261Z,3.10
2022-11-05T21:14:46.058Z,3.42
2022-11-05T21:17:20.064Z,2.90
2022-11-05T21:19:51.712Z,2.72
2022-11-05T21:22:23.363Z,3.00
2022-11-05T21:24:58.569Z,2.70
2022-11-05T21:27:30.198Z,3.28
2022-11-05T21:30:07.261Z,2.83
2022-11-05T21:32:38.788Z,2.83
2022-11-05T21:35:11.496Z,3.25
2022-11-05T21:38:24.130Z,3.47
2022-11-05T21:40:56.394Z,2.42
2022-11-05T21:43:28.357Z,2.90
2022-11-05T21:46:06.030Z,3.00
2022-11-05T21:48:37.781Z,3.33
2022-11-05T21:51:46.242Z,3.28
2022-11-05T22:01:05.810Z,2.88
2022-11-05T22:03:52.386Z,2.90
2022-11-05T22:07:31.109Z,2.60
2022-11-05T22:10:01.250Z,2.53
2022-11-05T22:12:32.805Z,2.60
2022-11-05T22:19:31.018Z,2.45
2022-11-05T22:22:02.452Z,2.00
2022-11-05T22:29:13.512Z,2.20
2022-11-05T22:31:45.186Z,2.40
2022-11-05T22:34:16.509Z,2.00
2022-11-05T22:36:49.336Z,2.17
2022-11-05T22:39:21.898Z,2.10
2022-11-05T22:42:26.773Z,2.03
2022-11-05T22:45:01.133Z,1.90
2022-11-05T22:48:08.081Z,1.63
2022-11-05T22:50:38.191Z,1.90
2022-11-05T22:53:05.581Z,1.77
2022-11-05T22:55:39.713Z,1.77
2022-11-05T22:58:07.060Z,1.73
2022-11-05T23:00:36.680Z,1.60
2022-11-05T23:03:04.427Z,1.88
2022-11-05T23:05:32.000Z,2.58
2022-11-05T23:08:19.986Z,2.45
2022-11-05T23:11:14.561Z,2.40
2022-11-05T23:13:41.953Z,2.40
2022-11-05T23:16:33.389Z,2.35
2022-11-05T23:19:21.374Z,2.15
2022-11-05T23:22:12.517Z,2.00
2022-11-05T23:24:39.946Z,2.08
2022-11-05T23:27:07.500Z,1.95
2022-11-05T23:29:37.067Z,1.98
2022-11-05T23:32:28.114Z,1.70
2022-11-05T23:34:57.091Z,1.60
2022-11-05T23:37:51.945Z,1.60
2022-11-05T23:40:25.826Z,2.10
2022-11-05T23:43:35.030Z,2.03
2022-11-05T23:46:22.427Z,2.30
2022-11-05T23:48:50.748Z,2.10
2022-11-05T23:51:18.187Z,2.63
2022-11-05T23:53:46.716Z,2.20
2022-11-05T23:56:15.429Z,2.20
2022-11-05T23:58:44.189Z,1.92
